CSHVD LPPT-LPSO
Flight info
| Callsign | CSHVD |
|---|---|
| Flight time | 0h 32m |
| Altitude | 2500 |
| Route | RALIS TR VXIRA DCT SAREM PTSOR |
| Aircraft | AS50/L-VGD/C |
Departure
| Time | 2026-04-23 15:07 |
|---|---|
| Airport | Lisbon Humberto Delgado Airport (LPPT) |
Arrival
| Time | 2026-04-23 15:39 |
|---|---|
| Airport | Aeródromo Municipal de Ponte de Sor (LPSO) |
| Time | Latitude | Longitude | Altitude | Speed | Heading |
|---|---|---|---|---|---|
| 2026-04-23 14:50 | 38.78198 | -9.12954 | 375 ft | 0 kts | 215° |
| 2026-04-23 15:01 | 38.78197 | -9.12955 | 375 ft | 0 kts | 214° |
| 2026-04-23 15:01 | 38.78180 | -9.12965 | 381 ft | 5 kts | 205° |
| 2026-04-23 15:02 | 38.78157 | -9.12987 | 381 ft | 3 kts | 205° |
| 2026-04-23 15:02 | 38.78110 | -9.13024 | 383 ft | 8 kts | 214° |
| 2026-04-23 15:02 | 38.78054 | -9.13065 | 405 ft | 9 kts | 189° |
| 2026-04-23 15:02 | 38.78003 | -9.13070 | 393 ft | 5 kts | 166° |
| 2026-04-23 15:03 | 38.77929 | -9.13041 | 403 ft | 12 kts | 171° |
| 2026-04-23 15:03 | 38.77873 | -9.13018 | 415 ft | 17 kts | 171° |
| 2026-04-23 15:03 | 38.77787 | -9.13048 | 404 ft | 10 kts | 227° |
| 2026-04-23 15:03 | 38.77769 | -9.13100 | 396 ft | 4 kts | 246° |
| 2026-04-23 15:04 | 38.77753 | -9.13192 | 406 ft | 14 kts | 259° |
| 2026-04-23 15:04 | 38.77738 | -9.13289 | 397 ft | 9 kts | 244° |
| 2026-04-23 15:04 | 38.77709 | -9.13351 | 400 ft | 7 kts | 213° |
| 2026-04-23 15:04 | 38.77645 | -9.13406 | 421 ft | 11 kts | 266° |
| 2026-04-23 15:05 | 38.77654 | -9.13446 | 404 ft | 3 kts | 260° |
| 2026-04-23 15:05 | 38.77681 | -9.13467 | 415 ft | 8 kts | 343° |
| 2026-04-23 15:05 | 38.77766 | -9.13496 | 417 ft | 19 kts | 342° |
| 2026-04-23 15:05 | 38.77913 | -9.13532 | 422 ft | 22 kts | 347° |
| 2026-04-23 15:06 | 38.78074 | -9.13570 | 412 ft | 23 kts | 351° |
| 2026-04-23 15:06 | 38.78104 | -9.13603 | 406 ft | 21 kts | 198° |
| 2026-04-23 15:06 | 38.77798 | -9.13768 | 523 ft | 66 kts | 203° |
| 2026-04-23 15:06 | 38.77336 | -9.14009 | 729 ft | 79 kts | 204° |
| 2026-04-23 15:07 | 38.76796 | -9.14329 | 879 ft | 88 kts | 209° |
| 2026-04-23 15:07 | 38.76217 | -9.14568 | 1082 ft | 91 kts | 173° |
| 2026-04-23 15:07 | 38.76029 | -9.13829 | 1112 ft | 105 kts | 85° |
| 2026-04-23 15:07 | 38.76201 | -9.12870 | 1066 ft | 110 kts | 70° |
| 2026-04-23 15:08 | 38.76629 | -9.12059 | 1048 ft | 107 kts | 41° |
| 2026-04-23 15:08 | 38.77206 | -9.11487 | 1047 ft | 106 kts | 36° |
| 2026-04-23 15:08 | 38.77788 | -9.10894 | 1060 ft | 105 kts | 41° |
| 2026-04-23 15:09 | 38.78244 | -9.09222 | 1043 ft | 98 kts | 31° |
| 2026-04-23 15:09 | 38.78937 | -9.08797 | 979 ft | 118 kts | 24° |
| 2026-04-23 15:09 | 38.79734 | -9.08564 | 1043 ft | 118 kts | 6° |
| 2026-04-23 15:09 | 38.80553 | -9.08404 | 1084 ft | 121 kts | 7° |
| 2026-04-23 15:10 | 38.81413 | -9.08276 | 1057 ft | 126 kts | 6° |
| 2026-04-23 15:10 | 38.82267 | -9.07999 | 1063 ft | 127 kts | 17° |
| 2026-04-23 15:10 | 38.83078 | -9.07511 | 1054 ft | 129 kts | 26° |
| 2026-04-23 15:10 | 38.83853 | -9.06956 | 1043 ft | 130 kts | 31° |
| 2026-04-23 15:11 | 38.84630 | -9.06346 | 1001 ft | 131 kts | 32° |
| 2026-04-23 15:11 | 38.85401 | -9.05703 | 952 ft | 133 kts | 34° |
| 2026-04-23 15:11 | 38.86064 | -9.04921 | 968 ft | 129 kts | 64° |
| 2026-04-23 15:11 | 38.86306 | -9.03815 | 973 ft | 130 kts | 77° |
| 2026-04-23 15:12 | 38.86840 | -9.02888 | 962 ft | 131 kts | 43° |
| 2026-04-23 15:12 | 38.87550 | -9.02231 | 1088 ft | 123 kts | 35° |
| 2026-04-23 15:12 | 38.88265 | -9.01640 | 1217 ft | 118 kts | 31° |
| 2026-04-23 15:12 | 38.89028 | -9.01115 | 1083 ft | 133 kts | 27° |
| 2026-04-23 15:13 | 38.89924 | -9.00813 | 1007 ft | 132 kts | 9° |
| 2026-04-23 15:13 | 38.90800 | -9.00467 | 930 ft | 135 kts | 24° |
| 2026-04-23 15:13 | 38.91661 | -8.99980 | 893 ft | 135 kts | 24° |
| 2026-04-23 15:13 | 38.92557 | -8.99611 | 841 ft | 134 kts | 14° |
| 2026-04-23 15:14 | 38.93449 | -8.99303 | 854 ft | 129 kts | 18° |
| 2026-04-23 15:14 | 38.94250 | -8.98913 | 1013 ft | 119 kts | 22° |
| 2026-04-23 15:14 | 38.94995 | -8.98454 | 1180 ft | 117 kts | 30° |
| 2026-04-23 15:14 | 38.95640 | -8.97857 | 1436 ft | 110 kts | 43° |
| 2026-04-23 15:15 | 38.96198 | -8.97176 | 1618 ft | 113 kts | 45° |
| 2026-04-23 15:15 | 38.96734 | -8.96467 | 1847 ft | 110 kts | 48° |
| 2026-04-23 15:15 | 38.97274 | -8.95748 | 2013 ft | 115 kts | 47° |
| 2026-04-23 15:15 | 38.97851 | -8.95039 | 2178 ft | 114 kts | 37° |
| 2026-04-23 15:16 | 38.98509 | -8.94449 | 2298 ft | 117 kts | 37° |
| 2026-04-23 15:16 | 38.99164 | -8.93810 | 2408 ft | 119 kts | 39° |
| 2026-04-23 15:16 | 38.99836 | -8.93125 | 2429 ft | 125 kts | 39° |
| 2026-04-23 15:16 | 39.00475 | -8.92359 | 2489 ft | 125 kts | 45° |
| 2026-04-23 15:17 | 39.01077 | -8.91532 | 2505 ft | 128 kts | 46° |
| 2026-04-23 15:17 | 39.01730 | -8.90762 | 2514 ft | 129 kts | 43° |
| 2026-04-23 15:17 | 39.02379 | -8.89948 | 2507 ft | 130 kts | 47° |
| 2026-04-23 15:17 | 39.03028 | -8.89103 | 2454 ft | 133 kts | 45° |
| 2026-04-23 15:18 | 39.03725 | -8.88355 | 2488 ft | 130 kts | 37° |
| 2026-04-23 15:18 | 39.04464 | -8.87660 | 2452 ft | 132 kts | 39° |
| 2026-04-23 15:18 | 39.05095 | -8.86813 | 2453 ft | 132 kts | 51° |
| 2026-04-23 15:18 | 39.05691 | -8.85882 | 2394 ft | 134 kts | 52° |
| 2026-04-23 15:19 | 39.06262 | -8.84962 | 2424 ft | 130 kts | 51° |
| 2026-04-23 15:19 | 39.06966 | -8.84249 | 2418 ft | 132 kts | 32° |
| 2026-04-23 15:19 | 39.07731 | -8.83599 | 2427 ft | 130 kts | 36° |
| 2026-04-23 15:19 | 39.08454 | -8.82918 | 2470 ft | 128 kts | 38° |
| 2026-04-23 15:20 | 39.09160 | -8.82213 | 2500 ft | 129 kts | 40° |
| 2026-04-23 15:20 | 39.09845 | -8.81445 | 2523 ft | 129 kts | 43° |
| 2026-04-23 15:20 | 39.10529 | -8.80664 | 2488 ft | 133 kts | 43° |
| 2026-04-23 15:20 | 39.11196 | -8.79850 | 2443 ft | 135 kts | 47° |
| 2026-04-23 15:21 | 39.11856 | -8.78987 | 2426 ft | 132 kts | 46° |
| 2026-04-23 15:21 | 39.12501 | -8.78151 | 2438 ft | 131 kts | 46° |
| 2026-04-23 15:21 | 39.13165 | -8.77337 | 2409 ft | 132 kts | 43° |
| 2026-04-23 15:21 | 39.13823 | -8.76539 | 2458 ft | 129 kts | 44° |
| 2026-04-23 15:22 | 39.14462 | -8.75729 | 2471 ft | 129 kts | 45° |
| 2026-04-23 15:22 | 39.15089 | -8.74887 | 2463 ft | 131 kts | 46° |
| 2026-04-23 15:22 | 39.15718 | -8.74049 | 2516 ft | 127 kts | 46° |
| 2026-04-23 15:22 | 39.16339 | -8.73178 | 2430 ft | 134 kts | 48° |
| 2026-04-23 15:23 | 39.16929 | -8.72247 | 2378 ft | 133 kts | 55° |
| 2026-04-23 15:23 | 39.17345 | -8.71187 | 2344 ft | 134 kts | 77° |
| 2026-04-23 15:23 | 39.17421 | -8.70022 | 2421 ft | 127 kts | 89° |
| 2026-04-23 15:23 | 39.17410 | -8.68870 | 2364 ft | 133 kts | 98° |
| 2026-04-23 15:24 | 39.17352 | -8.67694 | 2382 ft | 131 kts | 90° |
| 2026-04-23 15:24 | 39.17399 | -8.66530 | 2391 ft | 130 kts | 90° |
| 2026-04-23 15:24 | 39.17380 | -8.65372 | 2402 ft | 130 kts | 96° |
| 2026-04-23 15:24 | 39.17433 | -8.64220 | 2423 ft | 130 kts | 83° |
| 2026-04-23 15:25 | 39.17588 | -8.63059 | 2445 ft | 129 kts | 80° |
| 2026-04-23 15:25 | 39.17751 | -8.61909 | 2429 ft | 130 kts | 83° |
| 2026-04-23 15:25 | 39.17866 | -8.60755 | 2438 ft | 130 kts | 84° |
| 2026-04-23 15:25 | 39.17950 | -8.59595 | 2451 ft | 129 kts | 86° |
| 2026-04-23 15:26 | 39.18034 | -8.58423 | 2374 ft | 135 kts | 86° |
| 2026-04-23 15:26 | 39.18108 | -8.57203 | 2308 ft | 135 kts | 86° |
| 2026-04-23 15:26 | 39.18190 | -8.56024 | 2332 ft | 131 kts | 86° |
| 2026-04-23 15:26 | 39.18280 | -8.54879 | 2377 ft | 129 kts | 85° |
| 2026-04-23 15:27 | 39.18356 | -8.53727 | 2405 ft | 128 kts | 88° |
| 2026-04-23 15:27 | 39.18386 | -8.52571 | 2402 ft | 129 kts | 91° |
| 2026-04-23 15:27 | 39.18382 | -8.51421 | 2409 ft | 131 kts | 92° |
| 2026-04-23 15:27 | 39.18397 | -8.50252 | 2421 ft | 130 kts | 88° |
| 2026-04-23 15:28 | 39.18471 | -8.49090 | 2420 ft | 130 kts | 87° |
| 2026-04-23 15:28 | 39.18546 | -8.47930 | 2433 ft | 130 kts | 87° |
| 2026-04-23 15:28 | 39.18576 | -8.46771 | 2458 ft | 129 kts | 91° |
| 2026-04-23 15:28 | 39.18563 | -8.45614 | 2453 ft | 130 kts | 92° |
| 2026-04-23 15:29 | 39.18583 | -8.44425 | 2434 ft | 132 kts | 90° |
| 2026-04-23 15:29 | 39.18623 | -8.43267 | 2482 ft | 128 kts | 88° |
| 2026-04-23 15:29 | 39.18734 | -8.42111 | 2445 ft | 132 kts | 81° |
| 2026-04-23 15:29 | 39.18898 | -8.40950 | 2419 ft | 132 kts | 81° |
| 2026-04-23 15:30 | 39.19031 | -8.39774 | 2405 ft | 131 kts | 84° |
| 2026-04-23 15:30 | 39.19127 | -8.38599 | 2368 ft | 133 kts | 86° |
| 2026-04-23 15:30 | 39.19187 | -8.37387 | 2290 ft | 136 kts | 88° |
| 2026-04-23 15:30 | 39.19239 | -8.36189 | 2274 ft | 133 kts | 91° |
| 2026-04-23 15:31 | 39.19223 | -8.35014 | 2241 ft | 133 kts | 95° |
| 2026-04-23 15:31 | 39.19147 | -8.33840 | 2204 ft | 132 kts | 99° |
| 2026-04-23 15:31 | 39.19057 | -8.32655 | 2164 ft | 132 kts | 94° |
| 2026-04-23 15:31 | 39.19065 | -8.31471 | 2016 ft | 132 kts | 88° |
| 2026-04-23 15:32 | 39.19336 | -8.30374 | 1875 ft | 128 kts | 74° |
| 2026-04-23 15:32 | 39.19581 | -8.29279 | 1833 ft | 124 kts | 77° |
| 2026-04-23 15:32 | 39.19801 | -8.28233 | 1826 ft | 120 kts | 76° |
| 2026-04-23 15:32 | 39.20015 | -8.27183 | 1758 ft | 121 kts | 84° |
| 2026-04-23 15:33 | 39.20070 | -8.26167 | 1875 ft | 110 kts | 88° |
| 2026-04-23 15:33 | 39.20144 | -8.25160 | 1810 ft | 118 kts | 88° |
| 2026-04-23 15:33 | 39.20201 | -8.24071 | 1747 ft | 119 kts | 89° |
| 2026-04-23 15:33 | 39.20242 | -8.23034 | 1780 ft | 114 kts | 89° |
| 2026-04-23 15:34 | 39.20300 | -8.22005 | 1744 ft | 116 kts | 89° |
| 2026-04-23 15:34 | 39.20378 | -8.20979 | 1756 ft | 114 kts | 87° |
| 2026-04-23 15:34 | 39.20464 | -8.19953 | 1754 ft | 114 kts | 85° |
| 2026-04-23 15:34 | 39.20566 | -8.18938 | 1715 ft | 118 kts | 88° |
| 2026-04-23 15:35 | 39.20607 | -8.17857 | 1602 ft | 124 kts | 90° |
| 2026-04-23 15:35 | 39.20613 | -8.16744 | 1563 ft | 119 kts | 91° |
| 2026-04-23 15:35 | 39.20622 | -8.15687 | 1562 ft | 117 kts | 90° |
| 2026-04-23 15:35 | 39.20705 | -8.14665 | 1600 ft | 114 kts | 85° |
| 2026-04-23 15:36 | 39.20811 | -8.13638 | 1594 ft | 116 kts | 85° |
| 2026-04-23 15:36 | 39.20903 | -8.12588 | 1588 ft | 116 kts | 86° |
| 2026-04-23 15:36 | 39.20986 | -8.11558 | 1538 ft | 118 kts | 89° |
| 2026-04-23 15:36 | 39.21046 | -8.10528 | 1423 ft | 114 kts | 88° |
| 2026-04-23 15:37 | 39.21167 | -8.09549 | 1380 ft | 108 kts | 72° |
| 2026-04-23 15:37 | 39.21641 | -8.08823 | 1335 ft | 102 kts | 31° |
| 2026-04-23 15:37 | 39.22287 | -8.08491 | 1343 ft | 97 kts | 27° |
| 2026-04-23 15:37 | 39.22884 | -8.08103 | 1346 ft | 96 kts | 27° |
| 2026-04-23 15:38 | 39.23366 | -8.07540 | 1302 ft | 95 kts | 71° |
| 2026-04-23 15:38 | 39.23365 | -8.06743 | 1282 ft | 88 kts | 107° |
| 2026-04-23 15:38 | 39.23223 | -8.05975 | 1165 ft | 84 kts | 113° |
| 2026-04-23 15:38 | 39.23045 | -8.05334 | 1074 ft | 70 kts | 131° |
| 2026-04-23 15:39 | 39.22675 | -8.05035 | 941 ft | 55 kts | 183° |
| 2026-04-23 15:39 | 39.22340 | -8.05093 | 775 ft | 43 kts | 205° |
| 2026-04-23 15:39 | 39.22087 | -8.05230 | 578 ft | 38 kts | 221° |
| 2026-04-23 15:39 | 39.21884 | -8.05349 | 438 ft | 22 kts | 205° |
| 2026-04-23 15:40 | 39.21793 | -8.05411 | 416 ft | 13 kts | 195° |
| 2026-04-23 15:40 | 39.21668 | -8.05479 | 402 ft | 15 kts | 194° |
| 2026-04-23 15:40 | 39.21584 | -8.05521 | 410 ft | 19 kts | 214° |
| 2026-04-23 15:40 | 39.21493 | -8.05576 | 410 ft | 21 kts | 204° |
| 2026-04-23 15:41 | 39.21415 | -8.05623 | 396 ft | 8 kts | 133° |
| 2026-04-23 15:41 | 39.21390 | -8.05564 | 396 ft | 6 kts | 114° |
| 2026-04-23 15:41 | 39.21368 | -8.05499 | 393 ft | 10 kts | 119° |
| 2026-04-23 15:41 | 39.21326 | -8.05452 | 392 ft | 6 kts | 202° |
| 2026-04-23 15:42 | 39.21276 | -8.05480 | 393 ft | 9 kts | 199° |
| 2026-04-23 15:42 | 39.21218 | -8.05516 | 388 ft | 7 kts | 211° |
| 2026-04-23 15:42 | 39.21166 | -8.05530 | 388 ft | 8 kts | 134° |
| 2026-04-23 15:42 | 39.21114 | -8.05529 | 386 ft | 6 kts | 211° |
| 2026-04-23 15:43 | 39.21075 | -8.05552 | 384 ft | 7 kts | 214° |
| 2026-04-23 15:43 | 39.21030 | -8.05575 | 386 ft | 4 kts | 208° |
| 2026-04-23 15:43 | 39.20990 | -8.05598 | 386 ft | 6 kts | 223° |
| 2026-04-23 15:43 | 39.20956 | -8.05620 | 387 ft | 5 kts | 201° |
| 2026-04-23 15:44 | 39.20927 | -8.05632 | 385 ft | 5 kts | 133° |
| 2026-04-23 15:44 | 39.20914 | -8.05604 | 386 ft | 3 kts | 35° |
| 2026-04-23 15:44 | 39.20917 | -8.05596 | 383 ft | 1 kts | 298° |
| 2026-04-23 15:44 | 39.20917 | -8.05598 | 378 ft | 0 kts | 300° |